Cheyenne, WY

2:51 AM MDT on August 20, 2014 (GMT -0600)
Rolling Hills Estates | Change Station
CLOSE
Current Station
Personal Weather Station
Location: Cheyenne, WY
Elevation: 6214 ft
Nearby Weather Stations

Elev 6214 ft 41.14 °N, 104.90 °W | Updated 29 seconds ago

Mostly Cloudy
Mostly Cloudy
61.7 °F
Feels Like 61.7 °F
N
0.0
Wind Variable Wind from West
Gusts 0.0 mph

Today
High -- | Low -- °F
--% Chance of Precip.
Yesterday
High -- | Low -- °F
Precip. -- in
6:13 AM 7:50 PM
Waning Crescent, 23% visible
Pressure 29.69 in
Visibility 10.0 miles
Clouds Mostly Cloudy 11000 ft
Dew Point 56 °F
Humidity 81%
Rainfall 0.00 in
Snow Depth Not available.
UV 0 out of 12
Pollen 9.60 out of 12
Air Quality Not available.
Flu Activity Not available.
METAR KFEW 200756Z AUTO 22005KT 10SM BKN110 16/10 A2994 RMK AO2 SLP052 T01600104

More Conditions Fewer Conditions

Pressure 29.69 in
Visibility 10.0 miles
Clouds Mostly Cloudy 11000 ft
Dew Point 56 °F
Humidity 81%
Rainfall 0.00 in
Snow Depth Not available.
UV 0 out of 12
Pollen 9.60 out of 12
Air Quality Not available.
Flu Activity Not available.
METAR KFEW 200756Z AUTO 22005KT 10SM BKN110 16/10 A2994 RMK AO2 SLP052 T01600104

More Conditions Fewer Conditions

10-Day Weather Forecast

Almanac

Astronomy

Aug. 20, 2014 Rise Set
Actual Time 6:13 AM MDT 7:50 PM MDT
Civil Twilight 5:44 AM MDT 8:19 PM MDT
Nautical Twilight 5:09 AM MDT 8:54 PM MDT
Astronomical Twilight 4:31 AM MDT 9:32 PM MDT
Moon 1:55 AM MDT 4:38 PM MDT
Length of Visible Light 14h 34m
Length of Day
13h 36m
Tomorrow will be 2m 29s shorter.
Waning Crescent, 23% of the Moon is Illuminated
Today
Waning Crescent
Aug 25
New
Sep 2
First Quarter
Sep 8
Full
Sep 15
Last Quarter

Today's Extremes

State Highs State Lows

Community

WunderPhotos

Upload Photos

1,745,600 photos uploaded!

Nearby

Snow Depth

Station Depth Elevation
Crow Creek 3 in 8330 ft
Cinnabar Park 0 in 9690 ft
Brooklyn Lake 0 in 10220 ft
Battle Mountain 0 in 7440 ft
Casper Mountain 0 in 7850 ft

Earthquake Activity

City Distance Mag. Time & Date
No recent earthquake activity has been reported nearby.
Minimum magnitude displayed is 2.5.

Coastal Water Temperatures

Place Temperature
No Stations Reporting

Nearby Weather Stations